sensor_id;sensor_type;location;lat;lon;timestamp;P1;durP1;ratioP1;P2;durP2;ratioP2
2622;SDS011;1321;48.690;9.022;2023-02-15T00:02:01;22.23;;;19.23;;
2622;SDS011;1321;48.690;9.022;2023-02-15T00:04:30;27.97;;;20.70;;
2622;SDS011;1321;48.690;9.022;2023-02-15T00:07:14;21.60;;;18.00;;
2622;SDS011;1321;48.690;9.022;2023-02-15T00:09:44;25.23;;;18.53;;
2622;SDS011;1321;48.690;9.022;2023-02-15T00:12:13;24.83;;;18.63;;
2622;SDS011;1321;48.690;9.022;2023-02-15T00:14:42;23.30;;;20.43;;
2622;SDS011;1321;48.690;9.022;2023-02-15T00:17:10;21.10;;;18.00;;
2622;SDS011;1321;48.690;9.022;2023-02-15T00:19:38;23.60;;;19.87;;
2622;SDS011;1321;48.690;9.022;2023-02-15T00:22:07;24.13;;;21.47;;
2622;SDS011;1321;48.690;9.022;2023-02-15T00:24:36;22.53;;;18.53;;
2622;SDS011;1321;48.690;9.022;2023-02-15T00:27:04;23.50;;;19.07;;
2622;SDS011;1321;48.690;9.022;2023-02-15T00:29:33;27.63;;;21.43;;
2622;SDS011;1321;48.690;9.022;2023-02-15T00:32:01;22.87;;;19.20;;
2622;SDS011;1321;48.690;9.022;2023-02-15T00:34:29;24.53;;;19.00;;
2622;SDS011;1321;48.690;9.022;2023-02-15T00:36:57;23.87;;;18.53;;
2622;SDS011;1321;48.690;9.022;2023-02-15T00:39:25;21.07;;;18.70;;
2622;SDS011;1321;48.690;9.022;2023-02-15T00:41:56;18.90;;;16.90;;
2622;SDS011;1321;48.690;9.022;2023-02-15T00:44:25;24.90;;;20.80;;
2622;SDS011;1321;48.690;9.022;2023-02-15T00:46:53;23.30;;;18.90;;
2622;SDS011;1321;48.690;9.022;2023-02-15T00:49:21;22.47;;;18.50;;
2622;SDS011;1321;48.690;9.022;2023-02-15T00:51:49;21.03;;;18.73;;
2622;SDS011;1321;48.690;9.022;2023-02-15T00:54:17;21.03;;;17.27;;
2622;SDS011;1321;48.690;9.022;2023-02-15T00:56:45;19.63;;;16.50;;
2622;SDS011;1321;48.690;9.022;2023-02-15T00:59:15;22.43;;;18.20;;
2622;SDS011;1321;48.690;9.022;2023-02-15T01:01:43;22.50;;;17.53;;
2622;SDS011;1321;48.690;9.022;2023-02-15T01:04:11;24.00;;;18.30;;
2622;SDS011;1321;48.690;9.022;2023-02-15T01:06:39;20.60;;;17.57;;
2622;SDS011;1321;48.690;9.022;2023-02-15T01:09:07;18.93;;;16.50;;
2622;SDS011;1321;48.690;9.022;2023-02-15T01:11:35;18.57;;;16.57;;
2622;SDS011;1321;48.690;9.022;2023-02-15T01:14:03;19.80;;;16.53;;
2622;SDS011;1321;48.690;9.022;2023-02-15T01:16:33;19.50;;;17.50;;
2622;SDS011;1321;48.690;9.022;2023-02-15T01:19:02;17.53;;;15.20;;
2622;SDS011;1321;48.690;9.022;2023-02-15T01:21:30;18.37;;;16.23;;
2622;SDS011;1321;48.690;9.022;2023-02-15T01:24:00;20.07;;;16.30;;
2622;SDS011;1321;48.690;9.022;2023-02-15T01:26:28;23.20;;;17.47;;
2622;SDS011;1321;48.690;9.022;2023-02-15T01:28:57;21.43;;;16.80;;
2622;SDS011;1321;48.690;9.022;2023-02-15T01:31:25;20.37;;;17.67;;
2622;SDS011;1321;48.690;9.022;2023-02-15T01:33:55;20.27;;;16.30;;
2622;SDS011;1321;48.690;9.022;2023-02-15T01:36:23;19.10;;;17.10;;
2622;SDS011;1321;48.690;9.022;2023-02-15T01:38:51;21.60;;;17.13;;
2622;SDS011;1321;48.690;9.022;2023-02-15T01:41:19;23.33;;;18.90;;
2622;SDS011;1321;48.690;9.022;2023-02-15T01:43:50;19.67;;;17.43;;
2622;SDS011;1321;48.690;9.022;2023-02-15T01:46:22;19.67;;;16.50;;
2622;SDS011;1321;48.690;9.022;2023-02-15T01:48:55;19.03;;;17.00;;
2622;SDS011;1321;48.690;9.022;2023-02-15T01:51:27;19.23;;;17.10;;
2622;SDS011;1321;48.690;9.022;2023-02-15T01:53:58;21.27;;;18.97;;
2622;SDS011;1321;48.690;9.022;2023-02-15T01:56:31;20.40;;;17.80;;
2622;SDS011;1321;48.690;9.022;2023-02-15T01:59:02;24.83;;;17.53;;
2622;SDS011;1321;48.690;9.022;2023-02-15T02:01:35;23.70;;;18.27;;
2622;SDS011;1321;48.690;9.022;2023-02-15T02:04:07;22.10;;;18.10;;
2622;SDS011;1321;48.690;9.022;2023-02-15T02:06:40;22.23;;;18.20;;
2622;SDS011;1321;48.690;9.022;2023-02-15T02:09:08;20.27;;;18.17;;
2622;SDS011;1321;48.690;9.022;2023-02-15T02:11:36;22.10;;;18.47;;
2622;SDS011;1321;48.690;9.022;2023-02-15T02:14:07;22.20;;;17.50;;
2622;SDS011;1321;48.690;9.022;2023-02-15T02:16:38;21.30;;;17.97;;
2622;SDS011;1321;48.690;9.022;2023-02-15T02:19:25;24.97;;;17.83;;
2622;SDS011;1321;48.690;9.022;2023-02-15T02:22:27;22.13;;;17.17;;
2622;SDS011;1321;48.690;9.022;2023-02-15T02:25:24;19.47;;;17.33;;
2622;SDS011;1321;48.690;9.022;2023-02-15T02:28:22;18.57;;;16.10;;
2622;SDS011;1321;48.690;9.022;2023-02-15T02:31:21;19.20;;;15.70;;
2622;SDS011;1321;48.690;9.022;2023-02-15T02:34:03;19.73;;;15.60;;
2622;SDS011;1321;48.690;9.022;2023-02-15T02:36:40;18.60;;;16.37;;
2622;SDS011;1321;48.690;9.022;2023-02-15T02:39:18;19.40;;;16.47;;
2622;SDS011;1321;48.690;9.022;2023-02-15T02:41:54;19.10;;;16.17;;
2622;SDS011;1321;48.690;9.022;2023-02-15T02:44:29;19.80;;;16.23;;
2622;SDS011;1321;48.690;9.022;2023-02-15T02:47:04;19.00;;;16.33;;
2622;SDS011;1321;48.690;9.022;2023-02-15T02:49:38;19.87;;;17.00;;
2622;SDS011;1321;48.690;9.022;2023-02-15T02:52:35;19.90;;;16.55;;
2622;SDS011;1321;48.690;9.022;2023-02-15T02:55:04;18.33;;;16.35;;
2622;SDS011;1321;48.690;9.022;2023-02-15T02:57:36;20.40;;;17.13;;
2622;SDS011;1321;48.690;9.022;2023-02-15T03:00:10;22.37;;;15.53;;
2622;SDS011;1321;48.690;9.022;2023-02-15T03:02:39;18.67;;;15.32;;
2622;SDS011;1321;48.690;9.022;2023-02-15T03:05:14;20.17;;;16.40;;
2622;SDS011;1321;48.690;9.022;2023-02-15T03:07:46;16.43;;;14.67;;
2622;SDS011;1321;48.690;9.022;2023-02-15T03:10:17;17.20;;;15.32;;
2622;SDS011;1321;48.690;9.022;2023-02-15T03:12:48;16.67;;;14.97;;
2622;SDS011;1321;48.690;9.022;2023-02-15T03:15:18;19.13;;;15.90;;
2622;SDS011;1321;48.690;9.022;2023-02-15T03:17:48;21.90;;;17.67;;
2622;SDS011;1321;48.690;9.022;2023-02-15T03:20:22;19.42;;;16.05;;
2622;SDS011;1321;48.690;9.022;2023-02-15T03:22:54;17.30;;;14.90;;
2622;SDS011;1321;48.690;9.022;2023-02-15T03:25:26;17.43;;;15.60;;
2622;SDS011;1321;48.690;9.022;2023-02-15T03:28:00;16.97;;;15.20;;
2622;SDS011;1321;48.690;9.022;2023-02-15T03:30:32;17.88;;;16.15;;
2622;SDS011;1321;48.690;9.022;2023-02-15T03:33:01;16.73;;;14.97;;
2622;SDS011;1321;48.690;9.022;2023-02-15T03:35:33;17.93;;;16.03;;
2622;SDS011;1321;48.690;9.022;2023-02-15T03:38:06;19.87;;;16.27;;
2622;SDS011;1321;48.690;9.022;2023-02-15T03:40:37;18.00;;;15.93;;
2622;SDS011;1321;48.690;9.022;2023-02-15T03:43:27;20.92;;;16.30;;
2622;SDS011;1321;48.690;9.022;2023-02-15T03:46:03;18.23;;;16.15;;
2622;SDS011;1321;48.690;9.022;2023-02-15T03:48:38;17.40;;;14.05;;
2622;SDS011;1321;48.690;9.022;2023-02-15T03:51:11;17.90;;;15.70;;
2622;SDS011;1321;48.690;9.022;2023-02-15T03:54:02;16.10;;;14.40;;
2622;SDS011;1321;48.690;9.022;2023-02-15T03:56:33;18.37;;;15.93;;
2622;SDS011;1321;48.690;9.022;2023-02-15T03:59:02;17.17;;;15.40;;
2622;SDS011;1321;48.690;9.022;2023-02-15T04:01:49;19.85;;;15.73;;
2622;SDS011;1321;48.690;9.022;2023-02-15T04:04:32;18.15;;;14.35;;
2622;SDS011;1321;48.690;9.022;2023-02-15T04:07:04;19.63;;;16.10;;
2622;SDS011;1321;48.690;9.022;2023-02-15T04:09:34;18.15;;;15.63;;
2622;SDS011;1321;48.690;9.022;2023-02-15T04:12:20;17.33;;;15.13;;
2622;SDS011;1321;48.690;9.022;2023-02-15T04:14:48;18.15;;;15.82;;
2622;SDS011;1321;48.690;9.022;2023-02-15T04:17:35;20.38;;;15.40;;
2622;SDS011;1321;48.690;9.022;2023-02-15T04:20:04;18.60;;;15.23;;
2622;SDS011;1321;48.690;9.022;2023-02-15T04:22:52;20.27;;;16.00;;
2622;SDS011;1321;48.690;9.022;2023-02-15T04:25:38;19.93;;;16.07;;
2622;SDS011;1321;48.690;9.022;2023-02-15T04:28:06;17.57;;;15.67;;
2622;SDS011;1321;48.690;9.022;2023-02-15T04:30:34;18.63;;;16.33;;
2622;SDS011;1321;48.690;9.022;2023-02-15T04:33:02;17.83;;;15.25;;
2622;SDS011;1321;48.690;9.022;2023-02-15T04:35:31;20.90;;;17.50;;
2622;SDS011;1321;48.690;9.022;2023-02-15T04:38:01;20.30;;;15.88;;
2622;SDS011;1321;48.690;9.022;2023-02-15T04:40:29;19.50;;;16.57;;
2622;SDS011;1321;48.690;9.022;2023-02-15T04:42:57;21.85;;;15.88;;
2622;SDS011;1321;48.690;9.022;2023-02-15T04:45:25;16.73;;;14.68;;
2622;SDS011;1321;48.690;9.022;2023-02-15T04:47:54;16.58;;;14.80;;
2622;SDS011;1321;48.690;9.022;2023-02-15T04:50:22;18.27;;;16.27;;
2622;SDS011;1321;48.690;9.022;2023-02-15T04:52:50;18.67;;;14.23;;
2622;SDS011;1321;48.690;9.022;2023-02-15T04:55:20;18.40;;;15.23;;
2622;SDS011;1321;48.690;9.022;2023-02-15T04:57:48;19.55;;;15.00;;
2622;SDS011;1321;48.690;9.022;2023-02-15T05:00:16;22.48;;;16.98;;
2622;SDS011;1321;48.690;9.022;2023-02-15T05:02:45;19.48;;;16.35;;
2622;SDS011;1321;48.690;9.022;2023-02-15T05:05:13;18.45;;;16.48;;
2622;SDS011;1321;48.690;9.022;2023-02-15T05:07:46;19.98;;;15.95;;
2622;SDS011;1321;48.690;9.022;2023-02-15T05:10:14;22.50;;;18.20;;
2622;SDS011;1321;48.690;9.022;2023-02-15T05:12:44;21.63;;;18.37;;
2622;SDS011;1321;48.690;9.022;2023-02-15T05:15:12;22.23;;;15.93;;
2622;SDS011;1321;48.690;9.022;2023-02-15T05:17:40;19.20;;;17.00;;
2622;SDS011;1321;48.690;9.022;2023-02-15T05:20:08;20.77;;;16.77;;
2622;SDS011;1321;48.690;9.022;2023-02-15T05:22:37;22.30;;;17.08;;
2622;SDS011;1321;48.690;9.022;2023-02-15T05:25:07;25.08;;;19.00;;
2622;SDS011;1321;48.690;9.022;2023-02-15T05:27:54;22.50;;;16.92;;
2622;SDS011;1321;48.690;9.022;2023-02-15T05:30:40;22.80;;;17.85;;
2622;SDS011;1321;48.690;9.022;2023-02-15T05:33:09;22.10;;;16.92;;
2622;SDS011;1321;48.690;9.022;2023-02-15T05:35:37;21.60;;;18.10;;
2622;SDS011;1321;48.690;9.022;2023-02-15T05:38:05;19.85;;;16.33;;
2622;SDS011;1321;48.690;9.022;2023-02-15T05:40:33;19.50;;;16.50;;
2622;SDS011;1321;48.690;9.022;2023-02-15T05:43:03;19.87;;;16.03;;
2622;SDS011;1321;48.690;9.022;2023-02-15T05:45:31;19.33;;;16.42;;
2622;SDS011;1321;48.690;9.022;2023-02-15T05:47:59;20.98;;;17.20;;
2622;SDS011;1321;48.690;9.022;2023-02-15T05:50:27;22.45;;;16.35;;
2622;SDS011;1321;48.690;9.022;2023-02-15T05:52:55;22.98;;;17.95;;
2622;SDS011;1321;48.690;9.022;2023-02-15T05:55:24;19.60;;;16.98;;
2622;SDS011;1321;48.690;9.022;2023-02-15T05:57:52;19.98;;;16.35;;
2622;SDS011;1321;48.690;9.022;2023-02-15T06:00:21;19.85;;;15.18;;
2622;SDS011;1321;48.690;9.022;2023-02-15T06:02:50;21.42;;;15.82;;
2622;SDS011;1321;48.690;9.022;2023-02-15T06:05:18;19.38;;;16.50;;
2622;SDS011;1321;48.690;9.022;2023-02-15T06:07:46;17.65;;;15.05;;
2622;SDS011;1321;48.690;9.022;2023-02-15T06:10:14;20.50;;;15.70;;
2622;SDS011;1321;48.690;9.022;2023-02-15T06:12:43;16.40;;;14.00;;
2622;SDS011;1321;48.690;9.022;2023-02-15T06:15:11;17.60;;;15.02;;
2622;SDS011;1321;48.690;9.022;2023-02-15T06:17:41;17.92;;;14.95;;
2622;SDS011;1321;48.690;9.022;2023-02-15T06:20:10;18.80;;;15.60;;
2622;SDS011;1321;48.690;9.022;2023-02-15T06:22:39;18.65;;;15.10;;
2622;SDS011;1321;48.690;9.022;2023-02-15T06:25:07;16.45;;;13.50;;
2622;SDS011;1321;48.690;9.022;2023-02-15T06:27:36;15.85;;;13.93;;
2622;SDS011;1321;48.690;9.022;2023-02-15T06:30:05;17.25;;;13.57;;
2622;SDS011;1321;48.690;9.022;2023-02-15T06:32:34;21.88;;;13.85;;
2622;SDS011;1321;48.690;9.022;2023-02-15T06:35:04;19.15;;;15.75;;
2622;SDS011;1321;48.690;9.022;2023-02-15T06:37:33;18.20;;;15.40;;
2622;SDS011;1321;48.690;9.022;2023-02-15T06:40:01;16.13;;;14.48;;
2622;SDS011;1321;48.690;9.022;2023-02-15T06:42:30;15.98;;;13.65;;
2622;SDS011;1321;48.690;9.022;2023-02-15T06:44:58;17.02;;;13.88;;
2622;SDS011;1321;48.690;9.022;2023-02-15T06:47:27;16.48;;;14.77;;
2622;SDS011;1321;48.690;9.022;2023-02-15T06:49:55;15.10;;;12.68;;
2622;SDS011;1321;48.690;9.022;2023-02-15T06:52:25;15.77;;;13.50;;
2622;SDS011;1321;48.690;9.022;2023-02-15T06:54:54;16.48;;;14.63;;
2622;SDS011;1321;48.690;9.022;2023-02-15T06:57:22;21.83;;;14.82;;
2622;SDS011;1321;48.690;9.022;2023-02-15T06:59:50;14.93;;;13.50;;
2622;SDS011;1321;48.690;9.022;2023-02-15T07:02:19;13.98;;;12.57;;
2622;SDS011;1321;48.690;9.022;2023-02-15T07:04:47;17.90;;;14.02;;
2622;SDS011;1321;48.690;9.022;2023-02-15T07:07:15;13.82;;;12.23;;
2622;SDS011;1321;48.690;9.022;2023-02-15T07:09:45;15.88;;;13.48;;
2622;SDS011;1321;48.690;9.022;2023-02-15T07:12:13;16.35;;;14.05;;
2622;SDS011;1321;48.690;9.022;2023-02-15T07:14:59;18.80;;;13.43;;
2622;SDS011;1321;48.690;9.022;2023-02-15T07:17:27;16.63;;;13.95;;
2622;SDS011;1321;48.690;9.022;2023-02-15T07:20:03;17.02;;;13.15;;
2622;SDS011;1321;48.690;9.022;2023-02-15T07:22:34;14.07;;;11.32;;
2622;SDS011;1321;48.690;9.022;2023-02-15T07:25:05;10.38;;;8.55;;
2622;SDS011;1321;48.690;9.022;2023-02-15T07:27:35;9.32;;;8.40;;
2622;SDS011;1321;48.690;9.022;2023-02-15T07:30:04;13.18;;;8.75;;
2622;SDS011;1321;48.690;9.022;2023-02-15T07:32:34;10.35;;;9.30;;
2622;SDS011;1321;48.690;9.022;2023-02-15T07:35:02;8.60;;;7.93;;
2622;SDS011;1321;48.690;9.022;2023-02-15T07:37:30;9.13;;;8.23;;
2622;SDS011;1321;48.690;9.022;2023-02-15T07:39:58;10.60;;;9.68;;
2622;SDS011;1321;48.690;9.022;2023-02-15T07:42:27;8.13;;;7.40;;
2622;SDS011;1321;48.690;9.022;2023-02-15T07:44:58;9.00;;;8.07;;
2622;SDS011;1321;48.690;9.022;2023-02-15T07:47:26;8.73;;;7.83;;
2622;SDS011;1321;48.690;9.022;2023-02-15T07:49:54;9.60;;;8.60;;
2622;SDS011;1321;48.690;9.022;2023-02-15T07:52:22;9.80;;;8.90;;
2622;SDS011;1321;48.690;9.022;2023-02-15T07:54:50;12.20;;;11.00;;
2622;SDS011;1321;48.690;9.022;2023-02-15T07:57:18;12.53;;;11.17;;
2622;SDS011;1321;48.690;9.022;2023-02-15T07:59:48;17.00;;;15.00;;
2622;SDS011;1321;48.690;9.022;2023-02-15T08:02:16;17.50;;;15.67;;
2622;SDS011;1321;48.690;9.022;2023-02-15T08:04:44;21.60;;;16.83;;
2622;SDS011;1321;48.690;9.022;2023-02-15T08:07:13;19.43;;;17.33;;
2622;SDS011;1321;48.690;9.022;2023-02-15T08:09:41;16.87;;;14.90;;
2622;SDS011;1321;48.690;9.022;2023-02-15T08:12:09;18.73;;;15.27;;
2622;SDS011;1321;48.690;9.022;2023-02-15T08:14:37;21.60;;;18.00;;
2622;SDS011;1321;48.690;9.022;2023-02-15T08:17:07;19.97;;;17.87;;
2622;SDS011;1321;48.690;9.022;2023-02-15T08:19:35;21.07;;;15.93;;
2622;SDS011;1321;48.690;9.022;2023-02-15T08:22:04;21.30;;;17.07;;
2622;SDS011;1321;48.690;9.022;2023-02-15T08:24:33;19.77;;;16.60;;
2622;SDS011;1321;48.690;9.022;2023-02-15T08:27:04;18.77;;;16.63;;
2622;SDS011;1321;48.690;9.022;2023-02-15T08:29:34;21.70;;;17.10;;
2622;SDS011;1321;48.690;9.022;2023-02-15T08:32:04;18.83;;;16.20;;
2622;SDS011;1321;48.690;9.022;2023-02-15T08:34:35;16.80;;;15.13;;
2622;SDS011;1321;48.690;9.022;2023-02-15T08:37:05;26.90;;;16.63;;
2622;SDS011;1321;48.690;9.022;2023-02-15T08:39:33;16.60;;;14.93;;
2622;SDS011;1321;48.690;9.022;2023-02-15T08:42:01;15.03;;;13.53;;
2622;SDS011;1321;48.690;9.022;2023-02-15T08:44:29;15.07;;;13.70;;
2622;SDS011;1321;48.690;9.022;2023-02-15T08:46:58;15.60;;;14.10;;
2622;SDS011;1321;48.690;9.022;2023-02-15T08:49:30;15.83;;;14.43;;
2622;SDS011;1321;48.690;9.022;2023-02-15T08:52:00;15.30;;;14.00;;
2622;SDS011;1321;48.690;9.022;2023-02-15T08:54:28;17.07;;;15.30;;
2622;SDS011;1321;48.690;9.022;2023-02-15T08:56:56;15.93;;;14.43;;
2622;SDS011;1321;48.690;9.022;2023-02-15T08:59:25;15.13;;;13.73;;
2622;SDS011;1321;48.690;9.022;2023-02-15T09:01:53;15.67;;;14.37;;
2622;SDS011;1321;48.690;9.022;2023-02-15T09:04:22;16.43;;;14.83;;
2622;SDS011;1321;48.690;9.022;2023-02-15T09:06:50;15.03;;;13.63;;
2622;SDS011;1321;48.690;9.022;2023-02-15T09:09:20;16.40;;;15.03;;
2622;SDS011;1321;48.690;9.022;2023-02-15T09:11:49;16.23;;;15.07;;
2622;SDS011;1321;48.690;9.022;2023-02-15T09:14:24;16.27;;;14.57;;
2622;SDS011;1321;48.690;9.022;2023-02-15T09:16:54;15.67;;;14.37;;
2622;SDS011;1321;48.690;9.022;2023-02-15T09:19:22;14.77;;;13.37;;
2622;SDS011;1321;48.690;9.022;2023-02-15T09:21:51;15.37;;;14.07;;
2622;SDS011;1321;48.690;9.022;2023-02-15T09:24:21;14.63;;;13.43;;
2622;SDS011;1321;48.690;9.022;2023-02-15T09:26:49;15.20;;;13.50;;
2622;SDS011;1321;48.690;9.022;2023-02-15T09:29:17;14.90;;;13.60;;
2622;SDS011;1321;48.690;9.022;2023-02-15T09:31:46;15.67;;;14.27;;
2622;SDS011;1321;48.690;9.022;2023-02-15T09:34:16;14.53;;;13.33;;
2622;SDS011;1321;48.690;9.022;2023-02-15T09:36:47;17.30;;;15.80;;
2622;SDS011;1321;48.690;9.022;2023-02-15T09:39:17;14.03;;;12.83;;
2622;SDS011;1321;48.690;9.022;2023-02-15T09:41:54;14.47;;;13.27;;
2622;SDS011;1321;48.690;9.022;2023-02-15T09:44:50;14.60;;;13.20;;
2622;SDS011;1321;48.690;9.022;2023-02-15T09:47:54;12.60;;;11.70;;
2622;SDS011;1321;48.690;9.022;2023-02-15T09:50:49;13.53;;;12.43;;
2622;SDS011;1321;48.690;9.022;2023-02-15T09:53:28;14.10;;;12.73;;
2622;SDS011;1321;48.690;9.022;2023-02-15T09:56:06;12.93;;;11.80;;
2622;SDS011;1321;48.690;9.022;2023-02-15T09:58:45;14.70;;;13.57;;
2622;SDS011;1321;48.690;9.022;2023-02-15T10:01:23;13.10;;;11.93;;
2622;SDS011;1321;48.690;9.022;2023-02-15T10:04:01;12.27;;;11.37;;
2622;SDS011;1321;48.690;9.022;2023-02-15T10:06:38;13.57;;;12.47;;
2622;SDS011;1321;48.690;9.022;2023-02-15T10:09:27;11.83;;;10.83;;
2622;SDS011;1321;48.690;9.022;2023-02-15T10:12:11;10.53;;;9.63;;
2622;SDS011;1321;48.690;9.022;2023-02-15T10:17:48;12.27;;;11.37;;
2622;SDS011;1321;48.690;9.022;2023-02-15T10:20:27;13.70;;;12.60;;
2622;SDS011;1321;48.690;9.022;2023-02-15T10:23:11;12.47;;;11.47;;
2622;SDS011;1321;48.690;9.022;2023-02-15T10:25:55;13.23;;;12.10;;
2622;SDS011;1321;48.690;9.022;2023-02-15T10:28:33;14.90;;;13.73;;
2622;SDS011;1321;48.690;9.022;2023-02-15T10:31:13;15.27;;;13.90;;
2622;SDS011;1321;48.690;9.022;2023-02-15T10:34:04;12.70;;;11.87;;
2622;SDS011;1321;48.690;9.022;2023-02-15T10:36:50;14.70;;;13.60;;
2622;SDS011;1321;48.690;9.022;2023-02-15T10:39:40;15.27;;;14.00;;
2622;SDS011;1321;48.690;9.022;2023-02-15T10:42:17;13.33;;;12.40;;
2622;SDS011;1321;48.690;9.022;2023-02-15T10:44:58;14.30;;;13.30;;
2622;SDS011;1321;48.690;9.022;2023-02-15T10:47:42;13.83;;;12.77;;
2622;SDS011;1321;48.690;9.022;2023-02-15T10:50:27;13.53;;;12.73;;
2622;SDS011;1321;48.690;9.022;2023-02-15T10:56:04;14.50;;;13.60;;
2622;SDS011;1321;48.690;9.022;2023-02-15T10:58:46;11.10;;;10.40;;
2622;SDS011;1321;48.690;9.022;2023-02-15T11:01:39;13.77;;;12.67;;
2622;SDS011;1321;48.690;9.022;2023-02-15T11:07:15;12.80;;;11.70;;
2622;SDS011;1321;48.690;9.022;2023-02-15T11:09:47;13.90;;;12.90;;
2622;SDS011;1321;48.690;9.022;2023-02-15T11:12:18;13.93;;;13.03;;
2622;SDS011;1321;48.690;9.022;2023-02-15T11:14:49;13.57;;;12.70;;
2622;SDS011;1321;48.690;9.022;2023-02-15T11:17:24;14.23;;;13.23;;
2622;SDS011;1321;48.690;9.022;2023-02-15T11:19:58;14.43;;;13.50;;
2622;SDS011;1321;48.690;9.022;2023-02-15T11:22:35;13.97;;;12.97;;
2622;SDS011;1321;48.690;9.022;2023-02-15T11:25:05;14.27;;;13.10;;
2622;SDS011;1321;48.690;9.022;2023-02-15T11:27:43;13.17;;;12.33;;
2622;SDS011;1321;48.690;9.022;2023-02-15T11:30:15;13.47;;;12.47;;
2622;SDS011;1321;48.690;9.022;2023-02-15T11:32:47;13.03;;;11.93;;
2622;SDS011;1321;48.690;9.022;2023-02-15T11:35:20;13.17;;;12.13;;
2622;SDS011;1321;48.690;9.022;2023-02-15T11:37:53;12.37;;;11.57;;
2622;SDS011;1321;48.690;9.022;2023-02-15T11:40:26;11.90;;;10.90;;
2622;SDS011;1321;48.690;9.022;2023-02-15T11:42:58;11.93;;;10.93;;
2622;SDS011;1321;48.690;9.022;2023-02-15T11:45:32;13.70;;;12.67;;
2622;SDS011;1321;48.690;9.022;2023-02-15T11:48:01;12.43;;;11.53;;
2622;SDS011;1321;48.690;9.022;2023-02-15T11:50:39;12.77;;;11.67;;
2622;SDS011;1321;48.690;9.022;2023-02-15T11:53:10;13.43;;;12.37;;
2622;SDS011;1321;48.690;9.022;2023-02-15T11:55:41;12.70;;;11.50;;
2622;SDS011;1321;48.690;9.022;2023-02-15T11:58:13;12.87;;;11.97;;
2622;SDS011;1321;48.690;9.022;2023-02-15T12:00:49;12.67;;;11.77;;
2622;SDS011;1321;48.690;9.022;2023-02-15T12:03:21;12.80;;;11.60;;
2622;SDS011;1321;48.690;9.022;2023-02-15T12:05:56;12.27;;;11.23;;
2622;SDS011;1321;48.690;9.022;2023-02-15T12:08:29;10.37;;;9.33;;
2622;SDS011;1321;48.690;9.022;2023-02-15T12:11:05;11.30;;;10.13;;
2622;SDS011;1321;48.690;9.022;2023-02-15T12:13:46;9.80;;;9.00;;
2622;SDS011;1321;48.690;9.022;2023-02-15T12:16:23;11.57;;;10.50;;
2622;SDS011;1321;48.690;9.022;2023-02-15T12:18:52;9.60;;;8.90;;
2622;SDS011;1321;48.690;9.022;2023-02-15T12:21:28;10.33;;;9.40;;
2622;SDS011;1321;48.690;9.022;2023-02-15T12:24:00;8.80;;;8.10;;
2622;SDS011;1321;48.690;9.022;2023-02-15T12:26:32;11.27;;;8.73;;
2622;SDS011;1321;48.690;9.022;2023-02-15T12:29:06;9.87;;;7.83;;
2622;SDS011;1321;48.690;9.022;2023-02-15T12:31:41;9.27;;;8.57;;
2622;SDS011;1321;48.690;9.022;2023-02-15T12:34:12;9.10;;;7.93;;
2622;SDS011;1321;48.690;9.022;2023-02-15T12:36:49;9.93;;;9.17;;
2622;SDS011;1321;48.690;9.022;2023-02-15T12:39:24;11.13;;;9.13;;
2622;SDS011;1321;48.690;9.022;2023-02-15T12:42:01;9.57;;;8.80;;
2622;SDS011;1321;48.690;9.022;2023-02-15T12:44:31;9.80;;;9.07;;
2622;SDS011;1321;48.690;9.022;2023-02-15T12:47:01;9.17;;;8.37;;
2622;SDS011;1321;48.690;9.022;2023-02-15T12:49:31;9.17;;;7.90;;
2622;SDS011;1321;48.690;9.022;2023-02-15T12:52:02;8.67;;;7.97;;
2622;SDS011;1321;48.690;9.022;2023-02-15T12:54:37;7.93;;;7.43;;
2622;SDS011;1321;48.690;9.022;2023-02-15T12:57:14;9.27;;;8.37;;
2622;SDS011;1321;48.690;9.022;2023-02-15T12:59:49;8.93;;;8.10;;
2622;SDS011;1321;48.690;9.022;2023-02-15T13:02:23;9.73;;;8.93;;
2622;SDS011;1321;48.690;9.022;2023-02-15T13:04:54;11.00;;;10.07;;
2622;SDS011;1321;48.690;9.022;2023-02-15T13:07:29;10.53;;;9.43;;
2622;SDS011;1321;48.690;9.022;2023-02-15T13:09:58;8.90;;;8.00;;
2622;SDS011;1321;48.690;9.022;2023-02-15T13:12:27;9.27;;;8.47;;
2622;SDS011;1321;48.690;9.022;2023-02-15T13:14:58;10.90;;;9.80;;
2622;SDS011;1321;48.690;9.022;2023-02-15T13:17:29;10.20;;;9.10;;
2622;SDS011;1321;48.690;9.022;2023-02-15T13:20:02;13.17;;;11.07;;
2622;SDS011;1321;48.690;9.022;2023-02-15T13:22:37;10.90;;;9.80;;
2622;SDS011;1321;48.690;9.022;2023-02-15T13:25:11;12.20;;;9.97;;
2622;SDS011;1321;48.690;9.022;2023-02-15T13:27:45;8.63;;;8.13;;
2622;SDS011;1321;48.690;9.022;2023-02-15T13:30:18;9.37;;;8.50;;
2622;SDS011;1321;48.690;9.022;2023-02-15T13:32:56;8.73;;;8.03;;
2622;SDS011;1321;48.690;9.022;2023-02-15T13:35:35;8.13;;;7.53;;
2622;SDS011;1321;48.690;9.022;2023-02-15T13:38:13;9.57;;;8.60;;
2622;SDS011;1321;48.690;9.022;2023-02-15T13:40:52;8.83;;;8.30;;
2622;SDS011;1321;48.690;9.022;2023-02-15T13:43:32;8.63;;;8.03;;
2622;SDS011;1321;48.690;9.022;2023-02-15T13:46:18;9.70;;;8.90;;
2622;SDS011;1321;48.690;9.022;2023-02-15T13:49:05;9.87;;;9.17;;
2622;SDS011;1321;48.690;9.022;2023-02-15T13:51:43;9.70;;;8.80;;
2622;SDS011;1321;48.690;9.022;2023-02-15T13:57:17;9.70;;;9.00;;
2622;SDS011;1321;48.690;9.022;2023-02-15T14:00:11;10.13;;;9.23;;
2622;SDS011;1321;48.690;9.022;2023-02-15T14:06:02;11.23;;;10.23;;
2622;SDS011;1321;48.690;9.022;2023-02-15T14:08:45;9.77;;;9.17;;
2622;SDS011;1321;48.690;9.022;2023-02-15T14:11:29;11.73;;;10.70;;
2622;SDS011;1321;48.690;9.022;2023-02-15T14:17:10;11.53;;;10.07;;
2622;SDS011;1321;48.690;9.022;2023-02-15T14:19:50;14.90;;;11.33;;
2622;SDS011;1321;48.690;9.022;2023-02-15T14:22:24;9.97;;;9.17;;
2622;SDS011;1321;48.690;9.022;2023-02-15T14:25:02;10.00;;;9.00;;
2622;SDS011;1321;48.690;9.022;2023-02-15T14:27:48;11.70;;;10.50;;
2622;SDS011;1321;48.690;9.022;2023-02-15T14:30:22;13.67;;;10.47;;
2622;SDS011;1321;48.690;9.022;2023-02-15T14:32:54;10.63;;;9.77;;
2622;SDS011;1321;48.690;9.022;2023-02-15T14:35:26;10.33;;;9.43;;
2622;SDS011;1321;48.690;9.022;2023-02-15T14:37:58;11.00;;;10.00;;
2622;SDS011;1321;48.690;9.022;2023-02-15T14:40:37;12.20;;;10.20;;
2622;SDS011;1321;48.690;9.022;2023-02-15T14:43:33;12.63;;;11.50;;
2622;SDS011;1321;48.690;9.022;2023-02-15T14:46:17;12.63;;;11.53;;
2622;SDS011;1321;48.690;9.022;2023-02-15T14:48:54;11.87;;;10.70;;
2622;SDS011;1321;48.690;9.022;2023-02-15T14:57:31;13.73;;;12.30;;
2622;SDS011;1321;48.690;9.022;2023-02-15T15:03:10;14.60;;;12.63;;
2622;SDS011;1321;48.690;9.022;2023-02-15T15:05:51;14.03;;;12.80;;
2622;SDS011;1321;48.690;9.022;2023-02-15T15:08:22;13.10;;;12.00;;
2622;SDS011;1321;48.690;9.022;2023-02-15T15:10:56;13.70;;;12.60;;
2622;SDS011;1321;48.690;9.022;2023-02-15T15:14:09;14.13;;;12.80;;
2622;SDS011;1321;48.690;9.022;2023-02-15T15:16:58;14.63;;;13.10;;
2622;SDS011;1321;48.690;9.022;2023-02-15T15:22:34;14.67;;;13.50;;
2622;SDS011;1321;48.690;9.022;2023-02-15T15:25:04;15.13;;;13.83;;
2622;SDS011;1321;48.690;9.022;2023-02-15T15:27:42;16.00;;;14.50;;
2622;SDS011;1321;48.690;9.022;2023-02-15T15:43:10;13.17;;;11.87;;
2622;SDS011;1321;48.690;9.022;2023-02-15T15:49:10;13.63;;;12.43;;
2622;SDS011;1321;48.690;9.022;2023-02-15T15:51:42;13.00;;;11.80;;
2622;SDS011;1321;48.690;9.022;2023-02-15T15:54:15;13.97;;;12.57;;
2622;SDS011;1321;48.690;9.022;2023-02-15T15:56:47;13.17;;;11.97;;
2622;SDS011;1321;48.690;9.022;2023-02-15T15:59:18;14.30;;;13.00;;
2622;SDS011;1321;48.690;9.022;2023-02-15T16:01:49;11.77;;;10.63;;
2622;SDS011;1321;48.690;9.022;2023-02-15T16:04:24;12.10;;;10.67;;
2622;SDS011;1321;48.690;9.022;2023-02-15T16:06:53;11.25;;;10.07;;
2622;SDS011;1321;48.690;9.022;2023-02-15T16:09:23;11.93;;;11.00;;
2622;SDS011;1321;48.690;9.022;2023-02-15T16:11:53;10.80;;;9.90;;
2622;SDS011;1321;48.690;9.022;2023-02-15T16:14:25;12.17;;;11.23;;